sensor_id;sensor_type;location;lat;lon;timestamp;P1;durP1;ratioP1;P2;durP2;ratioP2
39674;SDS011;27790;50.840;4.386;2023-09-08T00:02:27;11.32;;;6.55;;
39674;SDS011;27790;50.840;4.386;2023-09-08T00:04:53;6.95;;;5.43;;
39674;SDS011;27790;50.840;4.386;2023-09-08T00:07:19;9.57;;;6.65;;
39674;SDS011;27790;50.840;4.386;2023-09-08T00:09:45;8.25;;;5.82;;
39674;SDS011;27790;50.840;4.386;2023-09-08T00:12:11;11.85;;;6.13;;
39674;SDS011;27790;50.840;4.386;2023-09-08T00:14:36;9.57;;;6.32;;
39674;SDS011;27790;50.840;4.386;2023-09-08T00:17:02;6.20;;;5.50;;
39674;SDS011;27790;50.840;4.386;2023-09-08T00:19:29;10.00;;;5.32;;
39674;SDS011;27790;50.840;4.386;2023-09-08T00:21:54;10.50;;;5.60;;
39674;SDS011;27790;50.840;4.386;2023-09-08T00:24:21;7.85;;;5.50;;
39674;SDS011;27790;50.840;4.386;2023-09-08T00:26:46;7.78;;;5.65;;
39674;SDS011;27790;50.840;4.386;2023-09-08T00:29:12;9.65;;;5.80;;
39674;SDS011;27790;50.840;4.386;2023-09-08T00:31:37;6.65;;;5.57;;
39674;SDS011;27790;50.840;4.386;2023-09-08T00:34:03;6.57;;;5.35;;
39674;SDS011;27790;50.840;4.386;2023-09-08T00:36:29;6.65;;;5.60;;
39674;SDS011;27790;50.840;4.386;2023-09-08T00:38:54;7.18;;;5.78;;
39674;SDS011;27790;50.840;4.386;2023-09-08T00:41:20;7.85;;;6.07;;
39674;SDS011;27790;50.840;4.386;2023-09-08T00:43:45;9.10;;;5.60;;
39674;SDS011;27790;50.840;4.386;2023-09-08T00:46:11;7.80;;;6.20;;
39674;SDS011;27790;50.840;4.386;2023-09-08T00:48:37;7.30;;;5.60;;
39674;SDS011;27790;50.840;4.386;2023-09-08T00:51:03;8.88;;;6.00;;
39674;SDS011;27790;50.840;4.386;2023-09-08T00:53:30;8.57;;;6.38;;
39674;SDS011;27790;50.840;4.386;2023-09-08T00:55:56;7.78;;;6.22;;
39674;SDS011;27790;50.840;4.386;2023-09-08T00:58:23;15.00;;;5.85;;
39674;SDS011;27790;50.840;4.386;2023-09-08T01:00:49;11.88;;;5.75;;
39674;SDS011;27790;50.840;4.386;2023-09-08T01:03:15;9.48;;;5.90;;
39674;SDS011;27790;50.840;4.386;2023-09-08T01:05:40;6.57;;;5.90;;
39674;SDS011;27790;50.840;4.386;2023-09-08T01:08:06;6.65;;;5.80;;
39674;SDS011;27790;50.840;4.386;2023-09-08T01:10:32;9.85;;;6.00;;
39674;SDS011;27790;50.840;4.386;2023-09-08T01:12:58;7.93;;;6.35;;
39674;SDS011;27790;50.840;4.386;2023-09-08T01:15:24;7.15;;;6.45;;
39674;SDS011;27790;50.840;4.386;2023-09-08T01:17:49;6.72;;;5.88;;
39674;SDS011;27790;50.840;4.386;2023-09-08T01:20:30;7.65;;;5.07;;
39674;SDS011;27790;50.840;4.386;2023-09-08T01:23:38;9.85;;;5.70;;
39674;SDS011;27790;50.840;4.386;2023-09-08T01:26:19;9.23;;;6.25;;
39674;SDS011;27790;50.840;4.386;2023-09-08T01:28:47;9.45;;;5.97;;
39674;SDS011;27790;50.840;4.386;2023-09-08T01:31:15;7.70;;;5.28;;
39674;SDS011;27790;50.840;4.386;2023-09-08T01:33:41;10.15;;;5.90;;
39674;SDS011;27790;50.840;4.386;2023-09-08T01:36:08;7.00;;;5.53;;
39674;SDS011;27790;50.840;4.386;2023-09-08T01:38:34;7.15;;;5.75;;
39674;SDS011;27790;50.840;4.386;2023-09-08T01:40:59;9.90;;;5.90;;
39674;SDS011;27790;50.840;4.386;2023-09-08T01:43:26;6.70;;;6.10;;
39674;SDS011;27790;50.840;4.386;2023-09-08T01:45:52;7.78;;;6.00;;
39674;SDS011;27790;50.840;4.386;2023-09-08T01:48:18;8.65;;;6.05;;
39674;SDS011;27790;50.840;4.386;2023-09-08T01:50:43;10.00;;;6.60;;
39674;SDS011;27790;50.840;4.386;2023-09-08T01:53:10;8.88;;;5.85;;
39674;SDS011;27790;50.840;4.386;2023-09-08T01:55:35;7.45;;;5.95;;
39674;SDS011;27790;50.840;4.386;2023-09-08T01:58:01;9.88;;;6.63;;
39674;SDS011;27790;50.840;4.386;2023-09-08T02:00:26;6.00;;;5.40;;
39674;SDS011;27790;50.840;4.386;2023-09-08T02:02:52;6.65;;;5.88;;
39674;SDS011;27790;50.840;4.386;2023-09-08T02:05:17;6.88;;;6.18;;
39674;SDS011;27790;50.840;4.386;2023-09-08T02:07:43;8.43;;;5.88;;
39674;SDS011;27790;50.840;4.386;2023-09-08T02:10:09;6.50;;;5.70;;
39674;SDS011;27790;50.840;4.386;2023-09-08T02:12:35;7.20;;;6.00;;
39674;SDS011;27790;50.840;4.386;2023-09-08T02:15:01;9.95;;;6.70;;
39674;SDS011;27790;50.840;4.386;2023-09-08T02:17:28;10.57;;;5.93;;
39674;SDS011;27790;50.840;4.386;2023-09-08T02:19:53;7.55;;;6.35;;
39674;SDS011;27790;50.840;4.386;2023-09-08T02:22:19;6.80;;;6.20;;
39674;SDS011;27790;50.840;4.386;2023-09-08T02:24:44;7.03;;;5.68;;
39674;SDS011;27790;50.840;4.386;2023-09-08T02:27:10;6.72;;;6.03;;
39674;SDS011;27790;50.840;4.386;2023-09-08T02:29:36;10.77;;;6.68;;
39674;SDS011;27790;50.840;4.386;2023-09-08T02:32:01;8.90;;;6.10;;
39674;SDS011;27790;50.840;4.386;2023-09-08T02:34:27;9.00;;;6.22;;
39674;SDS011;27790;50.840;4.386;2023-09-08T02:36:52;9.98;;;5.88;;
39674;SDS011;27790;50.840;4.386;2023-09-08T02:39:18;7.47;;;5.80;;
39674;SDS011;27790;50.840;4.386;2023-09-08T02:41:44;7.63;;;6.45;;
39674;SDS011;27790;50.840;4.386;2023-09-08T02:44:09;8.10;;;6.07;;
39674;SDS011;27790;50.840;4.386;2023-09-08T02:46:35;7.20;;;6.18;;
39674;SDS011;27790;50.840;4.386;2023-09-08T02:49:00;8.98;;;6.45;;
39674;SDS011;27790;50.840;4.386;2023-09-08T02:51:26;6.32;;;5.72;;
39674;SDS011;27790;50.840;4.386;2023-09-08T02:53:52;7.35;;;6.22;;
39674;SDS011;27790;50.840;4.386;2023-09-08T02:56:17;8.32;;;6.28;;
39674;SDS011;27790;50.840;4.386;2023-09-08T02:58:43;6.72;;;6.03;;
39674;SDS011;27790;50.840;4.386;2023-09-08T03:01:16;8.23;;;6.22;;
39674;SDS011;27790;50.840;4.386;2023-09-08T03:03:45;7.63;;;6.80;;
39674;SDS011;27790;50.840;4.386;2023-09-08T03:06:11;9.10;;;6.80;;
39674;SDS011;27790;50.840;4.386;2023-09-08T03:08:38;7.55;;;6.18;;
39674;SDS011;27790;50.840;4.386;2023-09-08T03:11:04;8.73;;;6.43;;
39674;SDS011;27790;50.840;4.386;2023-09-08T03:13:33;7.10;;;6.43;;
39674;SDS011;27790;50.840;4.386;2023-09-08T03:16:06;15.43;;;7.40;;
39674;SDS011;27790;50.840;4.386;2023-09-08T03:18:35;8.68;;;6.80;;
39674;SDS011;27790;50.840;4.386;2023-09-08T03:21:02;6.97;;;6.28;;
39674;SDS011;27790;50.840;4.386;2023-09-08T03:23:37;9.75;;;6.18;;
39674;SDS011;27790;50.840;4.386;2023-09-08T03:26:04;9.02;;;6.35;;
39674;SDS011;27790;50.840;4.386;2023-09-08T03:28:31;7.70;;;6.35;;
39674;SDS011;27790;50.840;4.386;2023-09-08T03:30:57;7.93;;;6.18;;
39674;SDS011;27790;50.840;4.386;2023-09-08T03:33:22;7.40;;;6.53;;
39674;SDS011;27790;50.840;4.386;2023-09-08T03:35:48;7.00;;;6.10;;
39674;SDS011;27790;50.840;4.386;2023-09-08T03:38:14;7.57;;;6.63;;
39674;SDS011;27790;50.840;4.386;2023-09-08T03:40:40;7.82;;;6.38;;
39674;SDS011;27790;50.840;4.386;2023-09-08T03:43:05;7.13;;;6.43;;
39674;SDS011;27790;50.840;4.386;2023-09-08T03:45:31;8.65;;;6.50;;
39674;SDS011;27790;50.840;4.386;2023-09-08T03:47:57;8.98;;;6.22;;
39674;SDS011;27790;50.840;4.386;2023-09-08T03:50:22;10.43;;;6.55;;
39674;SDS011;27790;50.840;4.386;2023-09-08T03:52:48;8.27;;;6.70;;
39674;SDS011;27790;50.840;4.386;2023-09-08T03:55:13;9.95;;;6.70;;
39674;SDS011;27790;50.840;4.386;2023-09-08T03:57:39;9.15;;;6.60;;
39674;SDS011;27790;50.840;4.386;2023-09-08T04:00:05;12.88;;;5.85;;
39674;SDS011;27790;50.840;4.386;2023-09-08T04:02:31;11.13;;;6.68;;
39674;SDS011;27790;50.840;4.386;2023-09-08T04:04:58;9.02;;;6.93;;
39674;SDS011;27790;50.840;4.386;2023-09-08T04:07:23;12.00;;;7.50;;
39674;SDS011;27790;50.840;4.386;2023-09-08T04:09:49;21.75;;;7.75;;
39674;SDS011;27790;50.840;4.386;2023-09-08T04:12:14;10.23;;;7.30;;
39674;SDS011;27790;50.840;4.386;2023-09-08T04:14:40;12.25;;;7.75;;
39674;SDS011;27790;50.840;4.386;2023-09-08T04:17:06;17.50;;;8.27;;
39674;SDS011;27790;50.840;4.386;2023-09-08T04:19:32;10.43;;;6.80;;
39674;SDS011;27790;50.840;4.386;2023-09-08T04:21:58;11.32;;;7.00;;
39674;SDS011;27790;50.840;4.386;2023-09-08T04:24:24;10.90;;;7.97;;
39674;SDS011;27790;50.840;4.386;2023-09-08T04:26:49;17.35;;;6.82;;
39674;SDS011;27790;50.840;4.386;2023-09-08T04:29:15;11.73;;;7.38;;
39674;SDS011;27790;50.840;4.386;2023-09-08T04:31:40;18.15;;;8.27;;
39674;SDS011;27790;50.840;4.386;2023-09-08T04:34:06;10.68;;;7.75;;
39674;SDS011;27790;50.840;4.386;2023-09-08T04:36:31;13.10;;;7.68;;
39674;SDS011;27790;50.840;4.386;2023-09-08T04:38:57;10.63;;;7.28;;
39674;SDS011;27790;50.840;4.386;2023-09-08T04:41:22;12.80;;;7.25;;
39674;SDS011;27790;50.840;4.386;2023-09-08T04:43:48;12.52;;;7.40;;
39674;SDS011;27790;50.840;4.386;2023-09-08T04:46:14;10.90;;;6.82;;
39674;SDS011;27790;50.840;4.386;2023-09-08T04:48:39;9.60;;;7.03;;
39674;SDS011;27790;50.840;4.386;2023-09-08T04:51:05;23.23;;;8.82;;
39674;SDS011;27790;50.840;4.386;2023-09-08T04:53:30;222.00;;;18.90;;
39674;SDS011;27790;50.840;4.386;2023-09-08T04:55:58;583.95;;;44.80;;
39674;SDS011;27790;50.840;4.386;2023-09-08T04:58:24;725.83;;;69.88;;
39674;SDS011;27790;50.840;4.386;2023-09-08T05:00:50;853.03;;;94.10;;
39674;SDS011;27790;50.840;4.386;2023-09-08T05:03:16;845.28;;;103.15;;
39674;SDS011;27790;50.840;4.386;2023-09-08T05:05:41;820.10;;;104.07;;
39674;SDS011;27790;50.840;4.386;2023-09-08T05:08:07;794.72;;;103.95;;
39674;SDS011;27790;50.840;4.386;2023-09-08T05:10:33;746.60;;;96.10;;
39674;SDS011;27790;50.840;4.386;2023-09-08T05:12:58;934.75;;;116.55;;
39674;SDS011;27790;50.840;4.386;2023-09-08T05:15:24;661.13;;;89.78;;
39674;SDS011;27790;50.840;4.386;2023-09-08T05:17:50;722.72;;;86.03;;
39674;SDS011;27790;50.840;4.386;2023-09-08T05:20:16;415.80;;;46.10;;
39674;SDS011;27790;50.840;4.386;2023-09-08T05:22:41;58.35;;;11.15;;
39674;SDS011;27790;50.840;4.386;2023-09-08T05:25:07;12.60;;;7.35;;
39674;SDS011;27790;50.840;4.386;2023-09-08T05:27:33;10.52;;;7.43;;
39674;SDS011;27790;50.840;4.386;2023-09-08T05:29:58;15.20;;;7.72;;
39674;SDS011;27790;50.840;4.386;2023-09-08T05:32:24;17.67;;;7.65;;
39674;SDS011;27790;50.840;4.386;2023-09-08T05:34:50;17.15;;;7.97;;
39674;SDS011;27790;50.840;4.386;2023-09-08T05:37:15;333.45;;;38.63;;
39674;SDS011;27790;50.840;4.386;2023-09-08T05:39:41;720.47;;;83.93;;
39674;SDS011;27790;50.840;4.386;2023-09-08T05:42:06;497.00;;;58.25;;
39674;SDS011;27790;50.840;4.386;2023-09-08T05:44:32;167.48;;;21.83;;
39674;SDS011;27790;50.840;4.386;2023-09-08T05:46:57;401.92;;;45.10;;
39674;SDS011;27790;50.840;4.386;2023-09-08T05:49:23;255.88;;;30.25;;
39674;SDS011;27790;50.840;4.386;2023-09-08T05:51:49;74.15;;;14.18;;
39674;SDS011;27790;50.840;4.386;2023-09-08T05:54:14;20.98;;;7.78;;
39674;SDS011;27790;50.840;4.386;2023-09-08T05:56:40;21.30;;;7.65;;
39674;SDS011;27790;50.840;4.386;2023-09-08T05:59:06;18.83;;;7.88;;
39674;SDS011;27790;50.840;4.386;2023-09-08T06:01:32;69.80;;;14.13;;
39674;SDS011;27790;50.840;4.386;2023-09-08T06:03:57;17.67;;;7.72;;
39674;SDS011;27790;50.840;4.386;2023-09-08T06:06:23;27.15;;;9.32;;
39674;SDS011;27790;50.840;4.386;2023-09-08T06:08:50;57.22;;;12.75;;
39674;SDS011;27790;50.840;4.386;2023-09-08T06:11:16;14.07;;;7.13;;
39674;SDS011;27790;50.840;4.386;2023-09-08T06:13:41;10.68;;;7.30;;
39674;SDS011;27790;50.840;4.386;2023-09-08T06:16:07;13.32;;;7.60;;
39674;SDS011;27790;50.840;4.386;2023-09-08T06:18:33;10.30;;;7.35;;
39674;SDS011;27790;50.840;4.386;2023-09-08T06:21:05;9.07;;;7.15;;
39674;SDS011;27790;50.840;4.386;2023-09-08T06:23:34;15.80;;;7.43;;
39674;SDS011;27790;50.840;4.386;2023-09-08T06:26:00;13.90;;;7.50;;
39674;SDS011;27790;50.840;4.386;2023-09-08T06:28:26;9.38;;;6.65;;
39674;SDS011;27790;50.840;4.386;2023-09-08T06:30:52;11.07;;;7.25;;
39674;SDS011;27790;50.840;4.386;2023-09-08T06:33:18;11.23;;;6.38;;
39674;SDS011;27790;50.840;4.386;2023-09-08T06:35:45;9.27;;;6.85;;
39674;SDS011;27790;50.840;4.386;2023-09-08T06:38:11;11.93;;;7.25;;
39674;SDS011;27790;50.840;4.386;2023-09-08T06:40:37;19.92;;;6.63;;
39674;SDS011;27790;50.840;4.386;2023-09-08T06:43:02;7.32;;;6.57;;
39674;SDS011;27790;50.840;4.386;2023-09-08T06:45:28;7.47;;;6.72;;
39674;SDS011;27790;50.840;4.386;2023-09-08T06:47:54;14.32;;;7.35;;
39674;SDS011;27790;50.840;4.386;2023-09-08T06:50:20;13.07;;;6.93;;
39674;SDS011;27790;50.840;4.386;2023-09-08T06:52:46;11.05;;;7.20;;
39674;SDS011;27790;50.840;4.386;2023-09-08T06:55:13;14.90;;;7.72;;
39674;SDS011;27790;50.840;4.386;2023-09-08T06:57:41;8.73;;;6.28;;
39674;SDS011;27790;50.840;4.386;2023-09-08T07:00:07;15.75;;;6.50;;
39674;SDS011;27790;50.840;4.386;2023-09-08T07:02:33;9.00;;;6.70;;
39674;SDS011;27790;50.840;4.386;2023-09-08T07:04:59;10.27;;;6.82;;
39674;SDS011;27790;50.840;4.386;2023-09-08T07:07:25;13.30;;;6.80;;
39674;SDS011;27790;50.840;4.386;2023-09-08T07:09:51;9.38;;;6.63;;
39674;SDS011;27790;50.840;4.386;2023-09-08T07:12:16;12.25;;;6.50;;
39674;SDS011;27790;50.840;4.386;2023-09-08T07:14:42;8.85;;;6.80;;
39674;SDS011;27790;50.840;4.386;2023-09-08T07:17:08;10.23;;;6.50;;
39674;SDS011;27790;50.840;4.386;2023-09-08T07:19:33;9.73;;;5.72;;
39674;SDS011;27790;50.840;4.386;2023-09-08T07:21:59;10.23;;;6.13;;
39674;SDS011;27790;50.840;4.386;2023-09-08T07:24:24;10.73;;;6.72;;
39674;SDS011;27790;50.840;4.386;2023-09-08T07:26:50;13.70;;;6.95;;
39674;SDS011;27790;50.840;4.386;2023-09-08T07:29:16;7.68;;;6.40;;
39674;SDS011;27790;50.840;4.386;2023-09-08T07:31:41;16.60;;;6.60;;
39674;SDS011;27790;50.840;4.386;2023-09-08T07:34:07;9.57;;;5.45;;
39674;SDS011;27790;50.840;4.386;2023-09-08T07:36:32;13.20;;;6.55;;
39674;SDS011;27790;50.840;4.386;2023-09-08T07:39:01;7.50;;;5.70;;
39674;SDS011;27790;50.840;4.386;2023-09-08T07:41:26;9.80;;;6.43;;
39674;SDS011;27790;50.840;4.386;2023-09-08T07:43:52;10.00;;;6.60;;
39674;SDS011;27790;50.840;4.386;2023-09-08T07:46:18;8.55;;;5.22;;
39674;SDS011;27790;50.840;4.386;2023-09-08T07:48:43;16.15;;;5.47;;
39674;SDS011;27790;50.840;4.386;2023-09-08T07:51:09;8.98;;;6.38;;
39674;SDS011;27790;50.840;4.386;2023-09-08T07:53:35;10.73;;;6.22;;
39674;SDS011;27790;50.840;4.386;2023-09-08T07:56:03;12.80;;;6.47;;
39674;SDS011;27790;50.840;4.386;2023-09-08T07:58:29;12.18;;;5.78;;
39674;SDS011;27790;50.840;4.386;2023-09-08T08:00:55;14.10;;;6.40;;
39674;SDS011;27790;50.840;4.386;2023-09-08T08:03:20;7.15;;;5.75;;
39674;SDS011;27790;50.840;4.386;2023-09-08T08:05:46;11.60;;;6.88;;
39674;SDS011;27790;50.840;4.386;2023-09-08T08:08:11;25.77;;;7.20;;
39674;SDS011;27790;50.840;4.386;2023-09-08T08:10:37;12.18;;;5.72;;
39674;SDS011;27790;50.840;4.386;2023-09-08T08:13:03;17.67;;;6.63;;
39674;SDS011;27790;50.840;4.386;2023-09-08T08:15:38;9.55;;;6.47;;
39674;SDS011;27790;50.840;4.386;2023-09-08T08:18:05;10.55;;;6.13;;
39674;SDS011;27790;50.840;4.386;2023-09-08T08:20:32;22.85;;;7.50;;
39674;SDS011;27790;50.840;4.386;2023-09-08T08:23:01;24.85;;;7.57;;
39674;SDS011;27790;50.840;4.386;2023-09-08T08:25:28;10.77;;;5.50;;
39674;SDS011;27790;50.840;4.386;2023-09-08T08:27:54;19.75;;;7.40;;
39674;SDS011;27790;50.840;4.386;2023-09-08T08:30:21;14.60;;;6.18;;
39674;SDS011;27790;50.840;4.386;2023-09-08T08:32:47;7.78;;;6.07;;
39674;SDS011;27790;50.840;4.386;2023-09-08T08:35:13;9.10;;;5.65;;
39674;SDS011;27790;50.840;4.386;2023-09-08T08:37:39;16.17;;;6.55;;
39674;SDS011;27790;50.840;4.386;2023-09-08T08:40:06;12.93;;;6.25;;
39674;SDS011;27790;50.840;4.386;2023-09-08T08:42:33;23.25;;;6.25;;
39674;SDS011;27790;50.840;4.386;2023-09-08T08:44:59;24.83;;;9.20;;
39674;SDS011;27790;50.840;4.386;2023-09-08T08:47:25;57.13;;;12.13;;
39674;SDS011;27790;50.840;4.386;2023-09-08T08:49:54;26.70;;;6.50;;
39674;SDS011;27790;50.840;4.386;2023-09-08T08:52:23;18.88;;;6.13;;
39674;SDS011;27790;50.840;4.386;2023-09-08T08:54:50;17.83;;;6.35;;
39674;SDS011;27790;50.840;4.386;2023-09-08T08:57:15;10.60;;;6.15;;
39674;SDS011;27790;50.840;4.386;2023-09-08T08:59:41;11.07;;;6.70;;
39674;SDS011;27790;50.840;4.386;2023-09-08T09:02:07;27.70;;;6.50;;
39674;SDS011;27790;50.840;4.386;2023-09-08T09:04:36;21.70;;;6.88;;
39674;SDS011;27790;50.840;4.386;2023-09-08T09:07:02;18.30;;;6.60;;
39674;SDS011;27790;50.840;4.386;2023-09-08T09:09:29;15.55;;;6.65;;
39674;SDS011;27790;50.840;4.386;2023-09-08T09:11:54;15.73;;;6.55;;
39674;SDS011;27790;50.840;4.386;2023-09-08T09:14:20;11.88;;;5.93;;
39674;SDS011;27790;50.840;4.386;2023-09-08T09:16:48;9.52;;;6.03;;
39674;SDS011;27790;50.840;4.386;2023-09-08T09:19:18;36.75;;;7.53;;
39674;SDS011;27790;50.840;4.386;2023-09-08T09:21:56;22.02;;;7.40;;
39674;SDS011;27790;50.840;4.386;2023-09-08T09:26:55;24.85;;;8.18;;
39674;SDS011;27790;50.840;4.386;2023-09-08T09:29:20;20.45;;;7.95;;
39674;SDS011;27790;50.840;4.386;2023-09-08T09:31:53;18.33;;;7.10;;
39674;SDS011;27790;50.840;4.386;2023-09-08T09:34:20;19.38;;;7.63;;
39674;SDS011;27790;50.840;4.386;2023-09-08T09:36:49;14.05;;;6.78;;
39674;SDS011;27790;50.840;4.386;2023-09-08T09:39:19;16.38;;;6.72;;
39674;SDS011;27790;50.840;4.386;2023-09-08T09:41:46;19.70;;;8.48;;
39674;SDS011;27790;50.840;4.386;2023-09-08T09:44:13;20.23;;;8.02;;
39674;SDS011;27790;50.840;4.386;2023-09-08T09:46:44;10.90;;;6.30;;
39674;SDS011;27790;50.840;4.386;2023-09-08T09:49:15;26.23;;;7.68;;
39674;SDS011;27790;50.840;4.386;2023-09-08T09:51:45;11.75;;;7.20;;
39674;SDS011;27790;50.840;4.386;2023-09-08T09:54:12;32.78;;;7.10;;
39674;SDS011;27790;50.840;4.386;2023-09-08T09:56:39;11.65;;;6.57;;
39674;SDS011;27790;50.840;4.386;2023-09-08T09:59:09;8.10;;;5.90;;
39674;SDS011;27790;50.840;4.386;2023-09-08T10:01:38;15.63;;;5.60;;
39674;SDS011;27790;50.840;4.386;2023-09-08T10:04:06;13.65;;;5.95;;
39674;SDS011;27790;50.840;4.386;2023-09-08T10:06:32;11.25;;;5.78;;
39674;SDS011;27790;50.840;4.386;2023-09-08T10:09:03;10.48;;;5.55;;
39674;SDS011;27790;50.840;4.386;2023-09-08T10:11:47;10.80;;;5.60;;
39674;SDS011;27790;50.840;4.386;2023-09-08T10:16:43;15.38;;;5.82;;
39674;SDS011;27790;50.840;4.386;2023-09-08T10:19:10;8.95;;;5.63;;
39674;SDS011;27790;50.840;4.386;2023-09-08T10:21:40;14.27;;;6.20;;
39674;SDS011;27790;50.840;4.386;2023-09-08T10:24:28;17.00;;;6.32;;
39674;SDS011;27790;50.840;4.386;2023-09-08T10:27:04;10.45;;;6.40;;
39674;SDS011;27790;50.840;4.386;2023-09-08T10:29:34;18.20;;;7.40;;
39674;SDS011;27790;50.840;4.386;2023-09-08T10:32:00;9.30;;;6.13;;
39674;SDS011;27790;50.840;4.386;2023-09-08T10:34:27;11.70;;;6.40;;
39674;SDS011;27790;50.840;4.386;2023-09-08T10:36:53;14.10;;;6.55;;
39674;SDS011;27790;50.840;4.386;2023-09-08T10:39:29;11.00;;;6.55;;
39674;SDS011;27790;50.840;4.386;2023-09-08T10:47:18;16.02;;;5.80;;
39674;SDS011;27790;50.840;4.386;2023-09-08T10:49:44;17.60;;;5.60;;
39674;SDS011;27790;50.840;4.386;2023-09-08T10:52:11;13.32;;;5.38;;
39674;SDS011;27790;50.840;4.386;2023-09-08T10:54:41;24.02;;;6.60;;
39674;SDS011;27790;50.840;4.386;2023-09-08T10:57:12;9.20;;;4.28;;
39674;SDS011;27790;50.840;4.386;2023-09-08T10:59:40;12.35;;;4.50;;
39674;SDS011;27790;50.840;4.386;2023-09-08T11:02:31;23.45;;;7.40;;
39674;SDS011;27790;50.840;4.386;2023-09-08T11:05:00;12.55;;;4.88;;
39674;SDS011;27790;50.840;4.386;2023-09-08T11:07:27;18.42;;;5.30;;
39674;SDS011;27790;50.840;4.386;2023-09-08T11:09:52;12.75;;;4.82;;
39674;SDS011;27790;50.840;4.386;2023-09-08T11:12:18;34.55;;;7.70;;
39674;SDS011;27790;50.840;4.386;2023-09-08T11:14:48;64.57;;;9.05;;
39674;SDS011;27790;50.840;4.386;2023-09-08T11:17:14;16.45;;;5.60;;
39674;SDS011;27790;50.840;4.386;2023-09-08T11:19:44;13.20;;;5.18;;
39674;SDS011;27790;50.840;4.386;2023-09-08T11:22:11;10.55;;;4.40;;
39674;SDS011;27790;50.840;4.386;2023-09-08T11:24:36;12.95;;;5.57;;
39674;SDS011;27790;50.840;4.386;2023-09-08T11:27:02;13.52;;;4.53;;
39674;SDS011;27790;50.840;4.386;2023-09-08T11:29:28;6.18;;;4.55;;
39674;SDS011;27790;50.840;4.386;2023-09-08T11:31:53;12.43;;;3.92;;
39674;SDS011;27790;50.840;4.386;2023-09-08T11:34:20;11.70;;;4.53;;
39674;SDS011;27790;50.840;4.386;2023-09-08T11:36:46;11.70;;;5.38;;
39674;SDS011;27790;50.840;4.386;2023-09-08T11:39:11;8.30;;;4.05;;
39674;SDS011;27790;50.840;4.386;2023-09-08T11:41:37;14.23;;;4.38;;
39674;SDS011;27790;50.840;4.386;2023-09-08T11:44:03;7.60;;;4.30;;
39674;SDS011;27790;50.840;4.386;2023-09-08T11:46:29;7.72;;;3.50;;
39674;SDS011;27790;50.840;4.386;2023-09-08T11:48:55;7.35;;;4.07;;
39674;SDS011;27790;50.840;4.386;2023-09-08T11:51:25;23.00;;;5.15;;
39674;SDS011;27790;50.840;4.386;2023-09-08T11:53:51;11.52;;;4.35;;
39674;SDS011;27790;50.840;4.386;2023-09-08T11:56:17;11.68;;;3.92;;
39674;SDS011;27790;50.840;4.386;2023-09-08T11:58:43;9.95;;;4.28;;
39674;SDS011;27790;50.840;4.386;2023-09-08T12:01:10;12.30;;;4.30;;
39674;SDS011;27790;50.840;4.386;2023-09-08T12:03:50;7.35;;;4.22;;
39674;SDS011;27790;50.840;4.386;2023-09-08T12:06:17;13.18;;;4.63;;
39674;SDS011;27790;50.840;4.386;2023-09-08T12:08:43;7.30;;;4.63;;
39674;SDS011;27790;50.840;4.386;2023-09-08T12:11:10;20.17;;;4.82;;
39674;SDS011;27790;50.840;4.386;2023-09-08T12:13:35;7.40;;;4.43;;
39674;SDS011;27790;50.840;4.386;2023-09-08T12:16:01;8.85;;;5.05;;
39674;SDS011;27790;50.840;4.386;2023-09-08T12:18:39;13.25;;;4.82;;
39674;SDS011;27790;50.840;4.386;2023-09-08T12:21:05;7.45;;;4.57;;
39674;SDS011;27790;50.840;4.386;2023-09-08T12:23:30;12.88;;;6.15;;
39674;SDS011;27790;50.840;4.386;2023-09-08T12:25:56;11.05;;;4.10;;
39674;SDS011;27790;50.840;4.386;2023-09-08T12:28:22;11.50;;;4.88;;
39674;SDS011;27790;50.840;4.386;2023-09-08T12:30:55;6.37;;;4.00;;
39674;SDS011;27790;50.840;4.386;2023-09-08T12:33:20;14.15;;;4.68;;
39674;SDS011;27790;50.840;4.386;2023-09-08T12:35:46;14.45;;;4.47;;
39674;SDS011;27790;50.840;4.386;2023-09-08T12:38:13;15.52;;;4.32;;
39674;SDS011;27790;50.840;4.386;2023-09-08T12:40:39;14.27;;;4.80;;
39674;SDS011;27790;50.840;4.386;2023-09-08T12:43:05;17.30;;;6.32;;
39674;SDS011;27790;50.840;4.386;2023-09-08T12:45:31;12.27;;;5.05;;
39674;SDS011;27790;50.840;4.386;2023-09-08T12:48:00;12.65;;;4.53;;
39674;SDS011;27790;50.840;4.386;2023-09-08T12:50:27;20.95;;;4.10;;
39674;SDS011;27790;50.840;4.386;2023-09-08T12:52:53;16.38;;;6.18;;
39674;SDS011;27790;50.840;4.386;2023-09-08T12:55:19;11.23;;;3.92;;
39674;SDS011;27790;50.840;4.386;2023-09-08T12:57:45;9.95;;;3.78;;
39674;SDS011;27790;50.840;4.386;2023-09-08T13:00:12;5.97;;;4.47;;
39674;SDS011;27790;50.840;4.386;2023-09-08T13:02:38;13.13;;;4.35;;
39674;SDS011;27790;50.840;4.386;2023-09-08T13:05:04;6.55;;;3.53;;
39674;SDS011;27790;50.840;4.386;2023-09-08T13:07:30;18.00;;;5.55;;
39674;SDS011;27790;50.840;4.386;2023-09-08T13:09:56;12.65;;;3.65;;
39674;SDS011;27790;50.840;4.386;2023-09-08T13:12:21;12.63;;;4.30;;
39674;SDS011;27790;50.840;4.386;2023-09-08T13:14:47;12.40;;;4.20;;
39674;SDS011;27790;50.840;4.386;2023-09-08T13:17:13;13.93;;;4.63;;
39674;SDS011;27790;50.840;4.386;2023-09-08T13:19:40;12.82;;;4.20;;
39674;SDS011;27790;50.840;4.386;2023-09-08T13:22:06;6.60;;;3.47;;
39674;SDS011;27790;50.840;4.386;2023-09-08T13:24:32;13.65;;;5.72;;
39674;SDS011;27790;50.840;4.386;2023-09-08T13:26:59;12.18;;;4.30;;
39674;SDS011;27790;50.840;4.386;2023-09-08T13:29:25;11.38;;;4.18;;
39674;SDS011;27790;50.840;4.386;2023-09-08T13:31:52;14.77;;;4.30;;
39674;SDS011;27790;50.840;4.386;2023-09-08T13:34:18;13.82;;;4.88;;
39674;SDS011;27790;50.840;4.386;2023-09-08T13:36:43;13.45;;;4.25;;
39674;SDS011;27790;50.840;4.386;2023-09-08T13:39:09;15.25;;;4.25;;
39674;SDS011;27790;50.840;4.386;2023-09-08T13:41:47;14.80;;;4.82;;
39674;SDS011;27790;50.840;4.386;2023-09-08T13:44:15;14.07;;;4.78;;
39674;SDS011;27790;50.840;4.386;2023-09-08T13:46:45;29.98;;;4.80;;
39674;SDS011;27790;50.840;4.386;2023-09-08T13:49:14;13.40;;;4.65;;
39674;SDS011;27790;50.840;4.386;2023-09-08T13:51:40;28.33;;;4.90;;
39674;SDS011;27790;50.840;4.386;2023-09-08T13:54:07;20.63;;;5.03;;
39674;SDS011;27790;50.840;4.386;2023-09-08T13:56:33;19.15;;;5.20;;
39674;SDS011;27790;50.840;4.386;2023-09-08T13:58:59;13.40;;;4.20;;
39674;SDS011;27790;50.840;4.386;2023-09-08T14:01:26;15.68;;;5.15;;
39674;SDS011;27790;50.840;4.386;2023-09-08T14:03:54;26.20;;;5.22;;
39674;SDS011;27790;50.840;4.386;2023-09-08T14:06:23;11.93;;;4.55;;
39674;SDS011;27790;50.840;4.386;2023-09-08T14:08:51;19.35;;;4.95;;
39674;SDS011;27790;50.840;4.386;2023-09-08T14:11:17;10.85;;;4.53;;
39674;SDS011;27790;50.840;4.386;2023-09-08T14:13:43;14.77;;;4.55;;
39674;SDS011;27790;50.840;4.386;2023-09-08T14:16:08;21.83;;;5.15;;
39674;SDS011;27790;50.840;4.386;2023-09-08T14:18:35;16.27;;;4.55;;
39674;SDS011;27790;50.840;4.386;2023-09-08T14:21:01;27.40;;;4.93;;
39674;SDS011;27790;50.840;4.386;2023-09-08T14:23:29;23.83;;;4.90;;
39674;SDS011;27790;50.840;4.386;2023-09-08T14:25:54;16.85;;;5.35;;
39674;SDS011;27790;50.840;4.386;2023-09-08T14:28:20;19.27;;;5.30;;
39674;SDS011;27790;50.840;4.386;2023-09-08T14:30:46;23.02;;;5.85;;
39674;SDS011;27790;50.840;4.386;2023-09-08T14:33:11;32.55;;;6.15;;
39674;SDS011;27790;50.840;4.386;2023-09-08T14:35:41;19.45;;;5.20;;
39674;SDS011;27790;50.840;4.386;2023-09-08T14:38:08;12.07;;;5.10;;
39674;SDS011;27790;50.840;4.386;2023-09-08T14:40:34;21.23;;;5.60;;
39674;SDS011;27790;50.840;4.386;2023-09-08T14:42:59;21.13;;;5.25;;
39674;SDS011;27790;50.840;4.386;2023-09-08T14:45:25;25.30;;;6.55;;
39674;SDS011;27790;50.840;4.386;2023-09-08T14:47:52;18.17;;;5.20;;